Weather reports worldwide

Advertisment
Berlin/Alexanderplatz, Germany (10389): temperature & dewpoint: 10.07.2018 18:00:00 - 16.07.2018 18:00:00 (CEST)Berlin/Alexanderplatz, Germany (10389): temperature -5cm: 10.07.2018 18:00:00 - 16.07.2018 18:00:00 (CEST)Berlin/Alexanderplatz, Germany (10389): temperature -20cm & temperature -100cm: 10.07.2018 18:00:00 - 16.07.2018 18:00:00 (CEST)Berlin/Alexanderplatz, Germany (10389): sunshine duration: 10.07.2018 18:00:00 - 16.07.2018 18:00:00 (CEST)Berlin/Alexanderplatz, Germany (10389): precipitation: 10.07.2018 18:00:00 - 16.07.2018 18:00:00 (CEST)
Date & Time tt [°C] td [°C] tt -5cm [°C] tt -20cm [°C] tt -100cm [°C] sd [min] rr [mm]
16.07.2018 18:00:00 - - - - - - -
16.07.2018 17:00:00 - - - - - - -
16.07.2018 16:00:00 - - - - - - -
16.07.2018 15:00:00 - - - - - - -
16.07.2018 14:00:00 - - - - - - -
16.07.2018 13:00:00 - - - - - - -
16.07.2018 12:00:00 - - - - - - -
16.07.2018 11:00:00 - - - - - - -
16.07.2018 10:00:00 - - - - - - -
16.07.2018 09:00:00 - - - - - - -
16.07.2018 08:00:00 - - - - - - -
16.07.2018 07:00:00 - - - - - - -
16.07.2018 06:00:00 - - - - - - -
16.07.2018 05:00:00 - - - - - - -
16.07.2018 04:00:00 - - - - - - -
16.07.2018 03:00:00 - - - - - - -
16.07.2018 02:00:00 18,4 14,3 20,2 23,7 20,0 0 0,0
16.07.2018 01:00:00 19,6 14,0 21,1 24,0 20,0 0 0,0
16.07.2018 00:00:00 20,7 13,6 22,1 24,7 20,0 0 0,0
15.07.2018 23:00:00 21,5 11,8 23,4 25,0 20,0 0 0,0
15.07.2018 22:00:00 22,7 10,8 25,2 25,5 20,0 0 0,0
15.07.2018 21:00:00 23,7 10,7 27,7 25,7 20,0 0 0,0
15.07.2018 20:00:00 24,4 11,0 30,8 25,7 20,0 34 0,0
15.07.2018 19:00:00 25,4 10,8 34,1 25,4 20,0 60 0,0
15.07.2018 18:00:00 25,6 11,0 36,5 24,7 20,0 59 0,0
15.07.2018 17:00:00 24,8 10,7 38,2 23,7 20,0 58 0,0
15.07.2018 16:00:00 25,1 10,9 38,3 22,7 20,0 60 0,0
15.07.2018 15:00:00 25,0 10,5 36,7 21,7 20,0 50 0,0
15.07.2018 14:00:00 23,6 11,0 34,6 20,5 20,0 57 0,0
15.07.2018 13:00:00 21,8 10,0 30,2 19,7 20,0 53 0,0
15.07.2018 12:00:00 21,5 10,0 24,4 19,4 20,0 52 0,0
15.07.2018 11:00:00 20,2 9,7 17,2 19,4 20,0 18 0,0
15.07.2018 10:00:00 19,1 8,7 16,3 19,5 20,0 4 0,0
15.07.2018 09:00:00 17,8 10,4 15,8 19,7 20,0 0 0,0
15.07.2018 08:00:00 16,9 11,0 15,6 19,9 20,0 0 0,0
15.07.2018 07:00:00 16,2 11,4 15,3 20,1 20,0 0 0,0
15.07.2018 06:00:00 15,8 11,2 15,0 20,4 20,0 0 0,0
15.07.2018 05:00:00 15,8 11,2 15,2 20,7 20,0 0 0,0
15.07.2018 04:00:00 15,4 10,6 15,7 21,0 20,0 0 0,0
15.07.2018 03:00:00 16,0 10,5 16,2 21,5 20,0 0 0,0
15.07.2018 02:00:00 16,4 10,7 16,8 22,0 20,0 0 0,0
15.07.2018 01:00:00 16,9 11,0 17,5 22,4 20,0 0 0,0
15.07.2018 00:00:00 17,2 11,2 18,4 22,9 20,0 0 0,0
14.07.2018 23:00:00 18,2 11,7 19,5 23,2 20,0 0 0,0
14.07.2018 22:00:00 19,7 11,5 20,9 23,7 20,0 0 0,0
14.07.2018 21:00:00 21,3 11,3 22,8 24,0 20,0 0 0,0
14.07.2018 20:00:00 22,0 11,4 25,6 24,2 20,0 35 0,0
14.07.2018 19:00:00 22,6 11,3 28,6 24,0 20,0 60 0,0
14.07.2018 18:00:00 23,3 12,0 30,3 23,6 20,0 60 0,0
14.07.2018 17:00:00 23,1 12,1 31,3 23,0 20,0 60 0,0
14.07.2018 16:00:00 23,6 12,9 31,6 22,4 20,0 60 0,0
14.07.2018 15:00:00 23,5 12,5 31,8 21,5 20,0 60 0,0
14.07.2018 14:00:00 22,6 12,5 31,0 20,7 20,0 60 0,0
14.07.2018 13:00:00 20,6 12,6 28,6 19,9 20,0 60 0,0
14.07.2018 12:00:00 20,9 12,8 24,9 19,5 20,0 60 0,0
14.07.2018 11:00:00 19,6 13,5 18,4 19,5 20,0 16 0,0
14.07.2018 10:00:00 18,1 13,6 17,9 19,5 20,0 4 0,0
14.07.2018 09:00:00 16,6 13,3 18,1 19,7 20,0 0 0,0
14.07.2018 08:00:00 15,8 13,3 16,8 19,7 20,0 0 0,0
14.07.2018 07:00:00 15,5 13,5 16,2 20,0 20,0 0 0,0
14.07.2018 06:00:00 16,0 13,8 16,4 20,2 20,0 0 0,0
14.07.2018 05:00:00 16,6 14,1 16,7 20,4 20,0 0 0,0
14.07.2018 04:00:00 17,5 14,4 17,1 20,7 20,0 0 0,0
14.07.2018 03:00:00 18,2 14,5 17,4 20,9 20,1 0 0,0
14.07.2018 02:00:00 19,0 14,5 17,8 21,2 20,0 0 0,0
14.07.2018 01:00:00 19,5 14,3 18,4 21,5 20,0 0 0,0
14.07.2018 00:00:00 20,5 14,4 19,1 21,7 20,0 0 0,0
13.07.2018 23:00:00 20,8 14,7 19,9 22,0 20,0 0 0,0
13.07.2018 22:00:00 21,1 14,0 20,5 22,2 20,0 0 0,0
13.07.2018 21:00:00 22,5 12,2 21,4 22,5 20,0 0 0,0
13.07.2018 20:00:00 23,9 11,6 23,1 22,7 20,0 18 0,0
13.07.2018 19:00:00 24,8 11,4 24,7 22,4 20,2 4 0,0
13.07.2018 18:00:00 27,0 11,9 28,6 22,0 20,2 57 0,0
13.07.2018 17:00:00 27,1 12,3 29,4 21,2 20,2 60 0,0
13.07.2018 16:00:00 26,8 13,9 29,7 20,7 20,2 60 0,0
13.07.2018 15:00:00 25,9 15,3 27,5 20,0 20,2 47 0,0
13.07.2018 14:00:00 22,6 14,2 24,0 19,7 20,2 3 0,0
13.07.2018 13:00:00 21,0 14,6 22,5 19,4 20,2 0 0,0
13.07.2018 12:00:00 18,8 14,5 21,5 19,2 20,3 0 0,0
13.07.2018 11:00:00 17,8 14,9 19,4 19,0 20,2 0 0,1
13.07.2018 10:00:00 17,6 14,9 18,9 18,9 20,2 0 0,0
13.07.2018 09:00:00 18,1 14,4 18,0 18,9 20,2 0 0,0
13.07.2018 08:00:00 17,5 14,0 16,9 19,0 20,2 0 0,0
13.07.2018 07:00:00 16,7 13,2 15,7 19,2 20,2 0 0,0
13.07.2018 06:00:00 17,0 12,7 15,8 19,4 20,2 0 0,0
13.07.2018 05:00:00 16,7 14,7 16,3 19,5 20,2 0 0,0
13.07.2018 04:00:00 17,6 15,0 16,9 19,7 20,4 0 0,0
13.07.2018 03:00:00 18,3 15,0 17,5 19,7 20,4 0 0,0
13.07.2018 02:00:00 18,5 15,4 17,7 19,7 20,4 0 0,0
13.07.2018 01:00:00 18,5 15,4 17,9 20,0 20,4 0 0,0
13.07.2018 00:00:00 18,8 15,5 18,0 20,0 20,4 0 0,0
12.07.2018 23:00:00 18,6 15,3 18,1 20,2 20,4 0 0,0
12.07.2018 22:00:00 18,9 15,0 18,3 20,2 20,4 0 0,0
12.07.2018 21:00:00 18,7 15,0 18,7 20,4 20,5 0 0,0
12.07.2018 20:00:00 18,7 14,8 19,1 20,5 20,5 0 0,0
12.07.2018 19:00:00 18,4 14,9 19,8 20,7 20,5 0 0,4
12.07.2018 18:00:00 19,6 14,2 20,8 20,5 20,5 0 0,0
12.07.2018 17:00:00 19,2 14,2 21,2 20,4 20,5 0 0,6
12.07.2018 16:00:00 18,7 15,0 21,8 20,2 20,5 0 0,1
12.07.2018 15:00:00 18,8 14,9 21,7 20,0 20,5 0 0,3
12.07.2018 14:00:00 19,7 15,1 22,9 19,7 20,5 6 0,0
12.07.2018 13:00:00 18,5 15,9 20,1 19,7 20,5 0 0,2
12.07.2018 12:00:00 17,6 15,6 18,8 19,6 20,5 0 0,2
12.07.2018 11:00:00 17,3 16,2 18,2 19,7 20,7 0 4,0
12.07.2018 10:00:00 17,4 16,6 18,4 19,7 20,7 0 4,0
12.07.2018 09:00:00 17,4 16,3 17,9 19,8 20,6 0 0,9
12.07.2018 08:00:00 16,5 16,0 16,5 20,0 20,7 0 8,6
12.07.2018 07:00:00 15,3 14,7 16,3 20,3 20,6 0 9,4
12.07.2018 06:00:00 14,9 14,3 16,6 20,7 20,7 0 3,4
12.07.2018 05:00:00 15,2 14,6 16,9 20,7 20,7 0 4,3
12.07.2018 04:00:00 15,7 14,9 17,1 21,0 20,7 0 1,7
12.07.2018 03:00:00 15,8 14,5 17,1 21,4 20,7 0 0,0
12.07.2018 02:00:00 16,0 14,4 17,4 21,7 20,7 0 0,0
12.07.2018 01:00:00 15,8 14,3 17,8 22,0 20,7 0 0,6
12.07.2018 00:00:00 15,8 14,7 18,1 22,4 20,7 0 10,6
11.07.2018 23:00:00 16,0 14,2 19,4 22,7 20,7 0 0,1
11.07.2018 22:00:00 19,0 13,6 20,4 23,0 20,7 0 0,0
11.07.2018 21:00:00 20,0 13,5 21,7 23,2 20,7 0 0,0
11.07.2018 20:00:00 21,2 12,9 23,4 23,2 20,7 37 0,0
11.07.2018 19:00:00 21,7 12,5 24,6 23,0 20,7 25 0,0
11.07.2018 18:00:00 22,9 11,0 26,9 22,9 20,7 40 0,0
11.07.2018 17:00:00 21,0 13,9 26,4 22,5 20,7 15 0,1
11.07.2018 16:00:00 24,1 10,7 27,9 22,0 20,7 34 0,0
11.07.2018 15:00:00 22,7 10,2 25,0 21,7 20,7 2 0,0
11.07.2018 14:00:00 21,5 10,3 25,9 21,5 20,7 7 0,0
11.07.2018 13:00:00 20,9 11,0 25,2 21,2 20,7 7 0,0
11.07.2018 12:00:00 19,9 11,4 24,0 21,0 20,7 17 0,0
11.07.2018 11:00:00 18,7 12,2 20,7 20,9 20,7 2 0,0
11.07.2018 10:00:00 18,2 12,6 19,9 20,9 20,7 7 0,0
11.07.2018 09:00:00 16,7 12,2 18,9 20,9 20,7 0 0,0
11.07.2018 08:00:00 16,0 12,4 18,0 21,0 20,7 0 0,0
11.07.2018 07:00:00 15,4 12,9 16,8 21,2 20,7 0 0,0
11.07.2018 06:00:00 15,1 12,8 16,4 21,6 20,7 0 0,0
11.07.2018 05:00:00 14,5 13,5 16,8 21,9 20,7 0 0,0
11.07.2018 04:00:00 14,7 13,7 17,0 22,2 20,7 0 0,0
11.07.2018 03:00:00 14,5 13,5 17,1 22,6 20,7 0 0,2
11.07.2018 02:00:00 14,6 13,8 17,4 22,9 20,7 0 5,5
11.07.2018 01:00:00 14,5 13,5 19,4 23,2 20,7 0 3,7
11.07.2018 00:00:00 15,4 13,2 20,5 23,4 20,7 0 1,2
10.07.2018 23:00:00 17,4 10,5 21,3 23,7 20,7 0 0,0
10.07.2018 22:00:00 17,1 10,9 22,3 23,7 20,7 - 0,0
10.07.2018 21:00:00 17,6 10,9 23,5 23,9 20,7 - 0,0
10.07.2018 20:00:00 17,9 10,5 25,0 23,9 20,7 0 0,0
10.07.2018 19:00:00 18,8 10,1 26,5 23,7 20,7 0 0,0
10.07.2018 18:00:00 19,1 10,1 27,6 23,7 20,7 15 0,0

tt = temperature
td = dewpoint
tt -5cm = temperature -5cm
tt -20cm = temperature -20cm
tt -100cm = temperature -100cm
sd = sunshine duration
rr = precipitation

Next stations